sensor_id;sensor_type;location;lat;lon;timestamp;temperature;humidity
16980;DHT22;42288;52.182;21.156;2023-11-19T00:00:20;2.20;99.90
16980;DHT22;42288;52.182;21.156;2023-11-19T00:02:45;2.20;99.90
16980;DHT22;42288;52.182;21.156;2023-11-19T00:05:13;2.20;99.90
16980;DHT22;42288;52.182;21.156;2023-11-19T00:07:39;2.20;99.90
16980;DHT22;42288;52.182;21.156;2023-11-19T00:10:09;2.10;99.90
16980;DHT22;42288;52.182;21.156;2023-11-19T00:12:37;2.10;99.90
16980;DHT22;42288;52.182;21.156;2023-11-19T00:15:03;2.10;99.90
16980;DHT22;42288;52.182;21.156;2023-11-19T00:17:29;2.10;99.90
16980;DHT22;42288;52.182;21.156;2023-11-19T00:19:54;2.20;99.90
16980;DHT22;42288;52.182;21.156;2023-11-19T00:22:20;2.10;99.90
16980;DHT22;42288;52.182;21.156;2023-11-19T00:24:47;2.10;99.90
16980;DHT22;42288;52.182;21.156;2023-11-19T00:27:12;2.10;99.90
16980;DHT22;42288;52.182;21.156;2023-11-19T00:29:38;2.10;99.90
16980;DHT22;42288;52.182;21.156;2023-11-19T00:32:04;2.20;99.90
16980;DHT22;42288;52.182;21.156;2023-11-19T00:34:31;2.20;99.90
16980;DHT22;42288;52.182;21.156;2023-11-19T00:36:56;2.20;99.90
16980;DHT22;42288;52.182;21.156;2023-11-19T00:39:22;2.20;99.90
16980;DHT22;42288;52.182;21.156;2023-11-19T00:41:48;2.20;99.90
16980;DHT22;42288;52.182;21.156;2023-11-19T00:44:13;2.20;99.90
16980;DHT22;42288;52.182;21.156;2023-11-19T00:46:39;2.20;99.90
16980;DHT22;42288;52.182;21.156;2023-11-19T00:49:06;2.20;99.90
16980;DHT22;42288;52.182;21.156;2023-11-19T00:51:32;2.20;99.90
16980;DHT22;42288;52.182;21.156;2023-11-19T00:53:58;2.20;99.90
16980;DHT22;42288;52.182;21.156;2023-11-19T00:56:24;2.20;99.90
16980;DHT22;42288;52.182;21.156;2023-11-19T00:58:50;2.30;99.90
16980;DHT22;42288;52.182;21.156;2023-11-19T01:01:15;2.20;99.90
16980;DHT22;42288;52.182;21.156;2023-11-19T01:03:41;2.20;99.90
16980;DHT22;42288;52.182;21.156;2023-11-19T01:06:07;2.20;99.90
16980;DHT22;42288;52.182;21.156;2023-11-19T01:08:33;2.30;99.90
16980;DHT22;42288;52.182;21.156;2023-11-19T01:11:01;2.30;99.90
16980;DHT22;42288;52.182;21.156;2023-11-19T01:13:27;2.30;99.90
16980;DHT22;42288;52.182;21.156;2023-11-19T01:15:53;2.30;99.90
16980;DHT22;42288;52.182;21.156;2023-11-19T01:18:19;2.30;99.90
16980;DHT22;42288;52.182;21.156;2023-11-19T01:20:44;2.30;99.90
16980;DHT22;42288;52.182;21.156;2023-11-19T01:23:10;2.30;99.90
16980;DHT22;42288;52.182;21.156;2023-11-19T01:25:35;2.40;99.90
16980;DHT22;42288;52.182;21.156;2023-11-19T01:28:03;2.40;99.90
16980;DHT22;42288;52.182;21.156;2023-11-19T01:30:30;2.40;99.90
16980;DHT22;42288;52.182;21.156;2023-11-19T01:32:56;2.40;99.90
16980;DHT22;42288;52.182;21.156;2023-11-19T01:35:21;2.40;99.90
16980;DHT22;42288;52.182;21.156;2023-11-19T01:37:48;2.40;99.90
16980;DHT22;42288;52.182;21.156;2023-11-19T01:40:14;2.40;99.90
16980;DHT22;42288;52.182;21.156;2023-11-19T01:42:41;2.40;99.90
16980;DHT22;42288;52.182;21.156;2023-11-19T01:45:07;2.30;99.90
16980;DHT22;42288;52.182;21.156;2023-11-19T01:47:33;2.30;99.90
16980;DHT22;42288;52.182;21.156;2023-11-19T01:50:00;2.30;99.90
16980;DHT22;42288;52.182;21.156;2023-11-19T01:52:27;2.30;99.90
16980;DHT22;42288;52.182;21.156;2023-11-19T01:54:53;2.30;99.90
16980;DHT22;42288;52.182;21.156;2023-11-19T01:57:21;2.30;99.90
16980;DHT22;42288;52.182;21.156;2023-11-19T01:59:50;2.40;99.90
16980;DHT22;42288;52.182;21.156;2023-11-19T02:02:16;2.40;99.90
16980;DHT22;42288;52.182;21.156;2023-11-19T02:04:47;2.40;99.90
16980;DHT22;42288;52.182;21.156;2023-11-19T02:07:14;2.40;99.90
16980;DHT22;42288;52.182;21.156;2023-11-19T02:09:43;2.30;99.90
16980;DHT22;42288;52.182;21.156;2023-11-19T02:12:09;2.30;99.90
16980;DHT22;42288;52.182;21.156;2023-11-19T02:14:37;2.20;99.90
16980;DHT22;42288;52.182;21.156;2023-11-19T02:17:03;2.20;99.90
16980;DHT22;42288;52.182;21.156;2023-11-19T02:19:29;2.30;99.90
16980;DHT22;42288;52.182;21.156;2023-11-19T02:21:55;2.30;99.90
16980;DHT22;42288;52.182;21.156;2023-11-19T02:24:22;2.20;99.90
16980;DHT22;42288;52.182;21.156;2023-11-19T02:27:08;2.30;99.90
16980;DHT22;42288;52.182;21.156;2023-11-19T02:29:35;2.30;99.90
16980;DHT22;42288;52.182;21.156;2023-11-19T02:32:00;2.30;99.90
16980;DHT22;42288;52.182;21.156;2023-11-19T02:34:28;2.40;99.90
16980;DHT22;42288;52.182;21.156;2023-11-19T02:36:54;2.30;99.90
16980;DHT22;42288;52.182;21.156;2023-11-19T02:39:20;2.20;99.90
16980;DHT22;42288;52.182;21.156;2023-11-19T02:41:47;2.30;99.90
16980;DHT22;42288;52.182;21.156;2023-11-19T02:44:16;2.30;99.90
16980;DHT22;42288;52.182;21.156;2023-11-19T02:46:42;2.30;99.90
16980;DHT22;42288;52.182;21.156;2023-11-19T02:49:07;2.20;99.90
16980;DHT22;42288;52.182;21.156;2023-11-19T02:51:33;2.30;99.90
16980;DHT22;42288;52.182;21.156;2023-11-19T02:54:00;2.30;99.90
16980;DHT22;42288;52.182;21.156;2023-11-19T02:56:26;2.30;99.90
16980;DHT22;42288;52.182;21.156;2023-11-19T02:58:52;2.40;99.90
16980;DHT22;42288;52.182;21.156;2023-11-19T03:01:24;2.40;99.90
16980;DHT22;42288;52.182;21.156;2023-11-19T03:03:58;2.40;99.90
16980;DHT22;42288;52.182;21.156;2023-11-19T03:06:24;2.40;99.90
16980;DHT22;42288;52.182;21.156;2023-11-19T03:08:50;2.30;99.90
16980;DHT22;42288;52.182;21.156;2023-11-19T03:11:16;2.30;99.90
16980;DHT22;42288;52.182;21.156;2023-11-19T03:13:41;2.30;99.90
16980;DHT22;42288;52.182;21.156;2023-11-19T03:16:07;2.30;99.90
16980;DHT22;42288;52.182;21.156;2023-11-19T03:18:33;2.40;99.90
16980;DHT22;42288;52.182;21.156;2023-11-19T03:20:58;2.40;99.90
16980;DHT22;42288;52.182;21.156;2023-11-19T03:23:24;2.40;99.90
16980;DHT22;42288;52.182;21.156;2023-11-19T03:25:53;2.40;99.90
16980;DHT22;42288;52.182;21.156;2023-11-19T03:28:19;2.40;99.90
16980;DHT22;42288;52.182;21.156;2023-11-19T03:30:45;2.40;99.90
16980;DHT22;42288;52.182;21.156;2023-11-19T03:33:10;2.40;99.90
16980;DHT22;42288;52.182;21.156;2023-11-19T03:35:36;2.40;99.90
16980;DHT22;42288;52.182;21.156;2023-11-19T03:38:01;2.40;99.90
16980;DHT22;42288;52.182;21.156;2023-11-19T03:40:28;2.40;99.90
16980;DHT22;42288;52.182;21.156;2023-11-19T03:42:56;2.50;99.90
16980;DHT22;42288;52.182;21.156;2023-11-19T03:45:22;2.50;99.90
16980;DHT22;42288;52.182;21.156;2023-11-19T03:47:48;2.50;99.90
16980;DHT22;42288;52.182;21.156;2023-11-19T03:50:15;2.50;99.90
16980;DHT22;42288;52.182;21.156;2023-11-19T03:52:41;2.50;99.90
16980;DHT22;42288;52.182;21.156;2023-11-19T03:55:07;2.50;99.90
16980;DHT22;42288;52.182;21.156;2023-11-19T03:57:34;2.50;99.90
16980;DHT22;42288;52.182;21.156;2023-11-19T04:00:00;2.50;99.90
16980;DHT22;42288;52.182;21.156;2023-11-19T04:02:27;2.50;99.90
16980;DHT22;42288;52.182;21.156;2023-11-19T04:04:54;2.60;99.90
16980;DHT22;42288;52.182;21.156;2023-11-19T04:07:20;2.60;99.90
16980;DHT22;42288;52.182;21.156;2023-11-19T04:09:46;2.60;99.90
16980;DHT22;42288;52.182;21.156;2023-11-19T04:12:12;2.60;99.90
16980;DHT22;42288;52.182;21.156;2023-11-19T04:14:37;2.50;99.90
16980;DHT22;42288;52.182;21.156;2023-11-19T04:17:03;2.60;99.90
16980;DHT22;42288;52.182;21.156;2023-11-19T04:19:29;2.60;99.90
16980;DHT22;42288;52.182;21.156;2023-11-19T04:21:54;2.60;99.90
16980;DHT22;42288;52.182;21.156;2023-11-19T04:24:20;2.60;99.90
16980;DHT22;42288;52.182;21.156;2023-11-19T04:26:46;2.60;99.90
16980;DHT22;42288;52.182;21.156;2023-11-19T04:29:16;2.60;99.90
16980;DHT22;42288;52.182;21.156;2023-11-19T04:31:45;2.60;99.90
16980;DHT22;42288;52.182;21.156;2023-11-19T04:34:11;2.60;99.90
16980;DHT22;42288;52.182;21.156;2023-11-19T04:36:37;2.60;99.90
16980;DHT22;42288;52.182;21.156;2023-11-19T04:39:03;2.60;99.90
16980;DHT22;42288;52.182;21.156;2023-11-19T04:41:45;2.60;99.90
16980;DHT22;42288;52.182;21.156;2023-11-19T04:44:12;2.70;99.90
16980;DHT22;42288;52.182;21.156;2023-11-19T04:46:37;2.70;99.90
16980;DHT22;42288;52.182;21.156;2023-11-19T04:49:03;2.60;99.90
16980;DHT22;42288;52.182;21.156;2023-11-19T04:51:30;2.60;99.90
16980;DHT22;42288;52.182;21.156;2023-11-19T04:53:55;2.60;99.90
16980;DHT22;42288;52.182;21.156;2023-11-19T04:56:21;2.60;99.90
16980;DHT22;42288;52.182;21.156;2023-11-19T04:58:48;2.60;99.90
16980;DHT22;42288;52.182;21.156;2023-11-19T05:01:14;2.60;99.90
16980;DHT22;42288;52.182;21.156;2023-11-19T05:03:43;2.60;99.90
16980;DHT22;42288;52.182;21.156;2023-11-19T05:06:09;2.60;99.90
16980;DHT22;42288;52.182;21.156;2023-11-19T05:08:35;2.60;99.90
16980;DHT22;42288;52.182;21.156;2023-11-19T05:11:01;2.50;99.90
16980;DHT22;42288;52.182;21.156;2023-11-19T05:13:26;2.50;99.90
16980;DHT22;42288;52.182;21.156;2023-11-19T05:15:52;2.50;99.90
16980;DHT22;42288;52.182;21.156;2023-11-19T05:18:17;2.50;99.90
16980;DHT22;42288;52.182;21.156;2023-11-19T05:20:45;2.60;99.90
16980;DHT22;42288;52.182;21.156;2023-11-19T05:23:10;2.50;99.90
16980;DHT22;42288;52.182;21.156;2023-11-19T05:25:36;2.50;99.90
16980;DHT22;42288;52.182;21.156;2023-11-19T05:28:02;2.50;99.90
16980;DHT22;42288;52.182;21.156;2023-11-19T05:30:28;2.40;99.90
16980;DHT22;42288;52.182;21.156;2023-11-19T05:32:53;2.40;99.90
16980;DHT22;42288;52.182;21.156;2023-11-19T05:35:19;2.40;99.90
16980;DHT22;42288;52.182;21.156;2023-11-19T05:37:45;2.50;99.90
16980;DHT22;42288;52.182;21.156;2023-11-19T05:40:10;2.50;99.90
16980;DHT22;42288;52.182;21.156;2023-11-19T05:42:42;2.40;99.90
16980;DHT22;42288;52.182;21.156;2023-11-19T05:45:11;2.50;99.90
16980;DHT22;42288;52.182;21.156;2023-11-19T05:47:37;2.50;99.90
16980;DHT22;42288;52.182;21.156;2023-11-19T05:50:02;2.50;99.90
16980;DHT22;42288;52.182;21.156;2023-11-19T05:52:29;2.50;99.90
16980;DHT22;42288;52.182;21.156;2023-11-19T05:55:02;2.50;99.90
16980;DHT22;42288;52.182;21.156;2023-11-19T05:57:30;2.50;99.90
16980;DHT22;42288;52.182;21.156;2023-11-19T05:59:56;2.40;99.90
16980;DHT22;42288;52.182;21.156;2023-11-19T06:02:22;2.50;99.90
16980;DHT22;42288;52.182;21.156;2023-11-19T06:04:47;2.40;99.90
16980;DHT22;42288;52.182;21.156;2023-11-19T06:07:13;2.50;99.90
16980;DHT22;42288;52.182;21.156;2023-11-19T06:09:40;2.40;99.90
16980;DHT22;42288;52.182;21.156;2023-11-19T06:12:06;2.40;99.90
16980;DHT22;42288;52.182;21.156;2023-11-19T06:14:32;2.50;99.90
16980;DHT22;42288;52.182;21.156;2023-11-19T06:16:58;2.50;99.90
16980;DHT22;42288;52.182;21.156;2023-11-19T06:19:23;2.50;99.90
16980;DHT22;42288;52.182;21.156;2023-11-19T06:21:50;2.50;99.90
16980;DHT22;42288;52.182;21.156;2023-11-19T06:24:16;2.50;99.90
16980;DHT22;42288;52.182;21.156;2023-11-19T06:26:42;2.50;99.90
16980;DHT22;42288;52.182;21.156;2023-11-19T06:29:07;2.60;99.90
16980;DHT22;42288;52.182;21.156;2023-11-19T06:31:33;2.60;99.90
16980;DHT22;42288;52.182;21.156;2023-11-19T06:33:58;2.60;99.90
16980;DHT22;42288;52.182;21.156;2023-11-19T06:36:24;2.60;99.90
16980;DHT22;42288;52.182;21.156;2023-11-19T06:38:49;2.60;99.90
16980;DHT22;42288;52.182;21.156;2023-11-19T06:41:15;2.60;99.90
16980;DHT22;42288;52.182;21.156;2023-11-19T06:43:41;2.70;99.90
16980;DHT22;42288;52.182;21.156;2023-11-19T06:46:18;2.70;99.90
16980;DHT22;42288;52.182;21.156;2023-11-19T06:48:44;2.60;99.90
16980;DHT22;42288;52.182;21.156;2023-11-19T06:51:10;2.60;99.90
16980;DHT22;42288;52.182;21.156;2023-11-19T06:53:36;2.60;99.90
16980;DHT22;42288;52.182;21.156;2023-11-19T06:56:02;2.60;99.90
16980;DHT22;42288;52.182;21.156;2023-11-19T06:58:32;2.60;99.90
16980;DHT22;42288;52.182;21.156;2023-11-19T07:01:01;2.60;99.90
16980;DHT22;42288;52.182;21.156;2023-11-19T07:03:26;2.60;99.90
16980;DHT22;42288;52.182;21.156;2023-11-19T07:05:52;2.50;99.90
16980;DHT22;42288;52.182;21.156;2023-11-19T07:08:17;2.50;99.90
16980;DHT22;42288;52.182;21.156;2023-11-19T07:10:43;2.60;99.90
16980;DHT22;42288;52.182;21.156;2023-11-19T07:13:08;2.60;99.90
16980;DHT22;42288;52.182;21.156;2023-11-19T07:15:35;2.60;99.90
16980;DHT22;42288;52.182;21.156;2023-11-19T07:18:00;2.60;99.90
16980;DHT22;42288;52.182;21.156;2023-11-19T07:20:26;2.60;99.90
16980;DHT22;42288;52.182;21.156;2023-11-19T07:22:53;2.50;99.90
16980;DHT22;42288;52.182;21.156;2023-11-19T07:25:20;2.50;99.90
16980;DHT22;42288;52.182;21.156;2023-11-19T07:27:45;2.50;99.90
16980;DHT22;42288;52.182;21.156;2023-11-19T07:30:13;2.50;99.90
16980;DHT22;42288;52.182;21.156;2023-11-19T07:32:39;2.60;99.90
16980;DHT22;42288;52.182;21.156;2023-11-19T07:35:05;2.60;99.90
16980;DHT22;42288;52.182;21.156;2023-11-19T07:37:31;2.50;99.90
16980;DHT22;42288;52.182;21.156;2023-11-19T07:39:57;2.60;99.90
16980;DHT22;42288;52.182;21.156;2023-11-19T07:42:22;2.60;99.90
16980;DHT22;42288;52.182;21.156;2023-11-19T07:44:49;2.60;99.90
16980;DHT22;42288;52.182;21.156;2023-11-19T07:47:15;2.60;99.90
16980;DHT22;42288;52.182;21.156;2023-11-19T07:49:40;2.60;99.90
16980;DHT22;42288;52.182;21.156;2023-11-19T07:52:06;2.60;99.90
16980;DHT22;42288;52.182;21.156;2023-11-19T07:54:32;2.60;99.90
16980;DHT22;42288;52.182;21.156;2023-11-19T07:56:58;2.60;99.90
16980;DHT22;42288;52.182;21.156;2023-11-19T07:59:23;2.70;99.90
16980;DHT22;42288;52.182;21.156;2023-11-19T08:01:49;2.70;99.90
16980;DHT22;42288;52.182;21.156;2023-11-19T08:04:14;2.80;99.90
16980;DHT22;42288;52.182;21.156;2023-11-19T08:06:40;2.80;99.90
16980;DHT22;42288;52.182;21.156;2023-11-19T08:09:06;2.70;99.90
16980;DHT22;42288;52.182;21.156;2023-11-19T08:11:32;2.80;99.90
16980;DHT22;42288;52.182;21.156;2023-11-19T08:13:59;2.70;99.90
16980;DHT22;42288;52.182;21.156;2023-11-19T08:16:24;2.80;99.90
16980;DHT22;42288;52.182;21.156;2023-11-19T08:18:50;2.70;99.90
16980;DHT22;42288;52.182;21.156;2023-11-19T08:21:15;2.70;99.90
16980;DHT22;42288;52.182;21.156;2023-11-19T08:23:41;2.70;99.90
16980;DHT22;42288;52.182;21.156;2023-11-19T08:26:07;2.80;99.90
16980;DHT22;42288;52.182;21.156;2023-11-19T08:28:32;2.80;99.90
16980;DHT22;42288;52.182;21.156;2023-11-19T08:30:59;2.80;99.90
16980;DHT22;42288;52.182;21.156;2023-11-19T08:33:26;3.00;99.90
16980;DHT22;42288;52.182;21.156;2023-11-19T08:35:52;3.00;99.90
16980;DHT22;42288;52.182;21.156;2023-11-19T08:38:18;3.00;99.90
16980;DHT22;42288;52.182;21.156;2023-11-19T08:40:44;3.00;99.90
16980;DHT22;42288;52.182;21.156;2023-11-19T08:43:09;3.10;99.90
16980;DHT22;42288;52.182;21.156;2023-11-19T08:45:35;3.10;99.90
16980;DHT22;42288;52.182;21.156;2023-11-19T08:48:01;3.10;99.90
16980;DHT22;42288;52.182;21.156;2023-11-19T08:50:27;3.10;99.90
16980;DHT22;42288;52.182;21.156;2023-11-19T08:52:52;3.20;99.90
16980;DHT22;42288;52.182;21.156;2023-11-19T08:55:18;3.30;99.90
16980;DHT22;42288;52.182;21.156;2023-11-19T08:57:44;3.30;99.90
16980;DHT22;42288;52.182;21.156;2023-11-19T09:00:10;3.20;99.90
16980;DHT22;42288;52.182;21.156;2023-11-19T09:02:39;3.30;99.90
16980;DHT22;42288;52.182;21.156;2023-11-19T09:05:05;3.30;99.90
16980;DHT22;42288;52.182;21.156;2023-11-19T09:07:34;3.30;99.90
16980;DHT22;42288;52.182;21.156;2023-11-19T09:10:00;3.30;99.90
16980;DHT22;42288;52.182;21.156;2023-11-19T09:12:25;3.40;99.90
16980;DHT22;42288;52.182;21.156;2023-11-19T09:27:14;3.20;99.90
16980;DHT22;42288;52.182;21.156;2023-11-19T09:29:39;3.40;99.90
16980;DHT22;42288;52.182;21.156;2023-11-19T09:32:06;3.40;99.90
16980;DHT22;42288;52.182;21.156;2023-11-19T09:34:31;3.40;99.90
16980;DHT22;42288;52.182;21.156;2023-11-19T09:36:57;3.40;99.90
16980;DHT22;42288;52.182;21.156;2023-11-19T09:39:23;3.40;99.90
16980;DHT22;42288;52.182;21.156;2023-11-19T09:41:51;3.40;99.90
16980;DHT22;42288;52.182;21.156;2023-11-19T09:44:17;3.60;99.90
16980;DHT22;42288;52.182;21.156;2023-11-19T09:46:44;3.60;99.90
16980;DHT22;42288;52.182;21.156;2023-11-19T09:49:11;3.50;99.90
16980;DHT22;42288;52.182;21.156;2023-11-19T09:51:38;3.60;99.90
16980;DHT22;42288;52.182;21.156;2023-11-19T09:54:04;3.50;99.90
16980;DHT22;42288;52.182;21.156;2023-11-19T09:56:30;3.50;99.90
16980;DHT22;42288;52.182;21.156;2023-11-19T09:58:56;3.50;99.90
16980;DHT22;42288;52.182;21.156;2023-11-19T10:01:21;3.50;99.90
16980;DHT22;42288;52.182;21.156;2023-11-19T10:03:47;3.30;99.90
16980;DHT22;42288;52.182;21.156;2023-11-19T10:06:15;3.40;99.90
16980;DHT22;42288;52.182;21.156;2023-11-19T10:08:41;3.30;99.90
16980;DHT22;42288;52.182;21.156;2023-11-19T10:11:08;3.30;99.90
16980;DHT22;42288;52.182;21.156;2023-11-19T10:13:36;3.30;99.90
16980;DHT22;42288;52.182;21.156;2023-11-19T10:16:08;3.30;99.90
16980;DHT22;42288;52.182;21.156;2023-11-19T10:18:34;3.30;99.90
16980;DHT22;42288;52.182;21.156;2023-11-19T10:21:06;3.30;99.90
16980;DHT22;42288;52.182;21.156;2023-11-19T10:26:20;3.20;99.90
16980;DHT22;42288;52.182;21.156;2023-11-19T10:28:49;3.20;99.90
16980;DHT22;42288;52.182;21.156;2023-11-19T10:31:16;3.20;99.90
16980;DHT22;42288;52.182;21.156;2023-11-19T10:33:42;3.20;99.90
16980;DHT22;42288;52.182;21.156;2023-11-19T10:36:13;3.20;99.90
16980;DHT22;42288;52.182;21.156;2023-11-19T10:38:39;3.20;99.90
16980;DHT22;42288;52.182;21.156;2023-11-19T10:41:06;3.20;99.90
16980;DHT22;42288;52.182;21.156;2023-11-19T10:43:45;3.30;99.90
16980;DHT22;42288;52.182;21.156;2023-11-19T10:46:12;3.30;99.90
16980;DHT22;42288;52.182;21.156;2023-11-19T10:48:38;3.30;99.90
16980;DHT22;42288;52.182;21.156;2023-11-19T10:51:06;3.30;99.90
16980;DHT22;42288;52.182;21.156;2023-11-19T10:53:37;3.30;99.90
16980;DHT22;42288;52.182;21.156;2023-11-19T10:56:10;3.30;99.90
16980;DHT22;42288;52.182;21.156;2023-11-19T10:58:36;3.20;99.90
16980;DHT22;42288;52.182;21.156;2023-11-19T11:01:11;3.20;99.90
16980;DHT22;42288;52.182;21.156;2023-11-19T11:03:42;3.20;99.90
16980;DHT22;42288;52.182;21.156;2023-11-19T11:06:11;3.10;99.90
16980;DHT22;42288;52.182;21.156;2023-11-19T11:08:39;3.20;99.90
16980;DHT22;42288;52.182;21.156;2023-11-19T11:11:05;3.10;99.90
16980;DHT22;42288;52.182;21.156;2023-11-19T11:13:33;3.20;99.90
16980;DHT22;42288;52.182;21.156;2023-11-19T11:16:00;3.20;99.90
16980;DHT22;42288;52.182;21.156;2023-11-19T11:18:26;3.20;99.90
16980;DHT22;42288;52.182;21.156;2023-11-19T11:20:59;3.10;99.90
16980;DHT22;42288;52.182;21.156;2023-11-19T11:29:12;3.10;99.90
16980;DHT22;42288;52.182;21.156;2023-11-19T11:37:30;3.10;99.90
16980;DHT22;42288;52.182;21.156;2023-11-19T11:39:58;3.10;99.90
16980;DHT22;42288;52.182;21.156;2023-11-19T11:45:16;3.20;99.90
16980;DHT22;42288;52.182;21.156;2023-11-19T11:50:10;3.10;99.90
16980;DHT22;42288;52.182;21.156;2023-11-19T11:58:18;3.10;99.90
16980;DHT22;42288;52.182;21.156;2023-11-19T12:00:43;3.10;99.90
16980;DHT22;42288;52.182;21.156;2023-11-19T12:03:12;3.10;99.90
16980;DHT22;42288;52.182;21.156;2023-11-19T12:05:41;3.10;99.90
16980;DHT22;42288;52.182;21.156;2023-11-19T12:08:11;3.10;99.90
16980;DHT22;42288;52.182;21.156;2023-11-19T12:13:16;3.10;99.90
16980;DHT22;42288;52.182;21.156;2023-11-19T12:18:27;3.00;99.90
16980;DHT22;42288;52.182;21.156;2023-11-19T12:20:53;3.00;99.90
16980;DHT22;42288;52.182;21.156;2023-11-19T12:23:18;3.10;99.90
16980;DHT22;42288;52.182;21.156;2023-11-19T12:25:44;3.00;99.90
16980;DHT22;42288;52.182;21.156;2023-11-19T12:28:13;3.10;99.90
16980;DHT22;42288;52.182;21.156;2023-11-19T12:30:39;3.10;99.90
16980;DHT22;42288;52.182;21.156;2023-11-19T12:33:08;3.10;99.90
16980;DHT22;42288;52.182;21.156;2023-11-19T12:35:44;3.20;99.90
16980;DHT22;42288;52.182;21.156;2023-11-19T12:38:24;3.20;99.90
16980;DHT22;42288;52.182;21.156;2023-11-19T12:41:10;3.20;99.90
16980;DHT22;42288;52.182;21.156;2023-11-19T12:43:37;3.10;99.90
16980;DHT22;42288;52.182;21.156;2023-11-19T12:46:23;3.20;99.90
16980;DHT22;42288;52.182;21.156;2023-11-19T12:48:50;3.10;99.90
16980;DHT22;42288;52.182;21.156;2023-11-19T12:51:16;3.10;99.90
16980;DHT22;42288;52.182;21.156;2023-11-19T12:53:53;3.10;99.90
16980;DHT22;42288;52.182;21.156;2023-11-19T12:56:21;3.00;99.90
16980;DHT22;42288;52.182;21.156;2023-11-19T12:58:47;3.00;99.90
16980;DHT22;42288;52.182;21.156;2023-11-19T13:01:19;3.00;99.90
16980;DHT22;42288;52.182;21.156;2023-11-19T13:03:46;3.00;99.90
16980;DHT22;42288;52.182;21.156;2023-11-19T13:06:15;2.90;99.90
16980;DHT22;42288;52.182;21.156;2023-11-19T13:08:41;2.90;99.90
16980;DHT22;42288;52.182;21.156;2023-11-19T13:11:09;2.90;99.90
16980;DHT22;42288;52.182;21.156;2023-11-19T13:13:59;2.90;99.90
16980;DHT22;42288;52.182;21.156;2023-11-19T13:16:26;2.90;99.90
16980;DHT22;42288;52.182;21.156;2023-11-19T13:18:53;3.00;99.90
16980;DHT22;42288;52.182;21.156;2023-11-19T13:21:18;3.00;99.90
16980;DHT22;42288;52.182;21.156;2023-11-19T13:23:45;3.00;99.90
16980;DHT22;42288;52.182;21.156;2023-11-19T13:26:11;3.00;99.90
16980;DHT22;42288;52.182;21.156;2023-11-19T13:28:37;2.90;99.90
16980;DHT22;42288;52.182;21.156;2023-11-19T13:31:03;3.00;99.90
16980;DHT22;42288;52.182;21.156;2023-11-19T13:33:29;3.00;99.90
16980;DHT22;42288;52.182;21.156;2023-11-19T13:35:55;2.90;99.90
16980;DHT22;42288;52.182;21.156;2023-11-19T13:38:21;2.80;99.90
16980;DHT22;42288;52.182;21.156;2023-11-19T13:40:48;2.90;99.90
16980;DHT22;42288;52.182;21.156;2023-11-19T13:43:14;2.80;99.90
16980;DHT22;42288;52.182;21.156;2023-11-19T13:45:40;2.80;99.90
16980;DHT22;42288;52.182;21.156;2023-11-19T13:48:06;2.80;99.90
16980;DHT22;42288;52.182;21.156;2023-11-19T13:50:33;2.70;99.90
16980;DHT22;42288;52.182;21.156;2023-11-19T13:52:59;2.70;99.90
16980;DHT22;42288;52.182;21.156;2023-11-19T13:55:25;2.70;99.90
16980;DHT22;42288;52.182;21.156;2023-11-19T13:57:51;2.80;99.90
16980;DHT22;42288;52.182;21.156;2023-11-19T14:00:17;2.80;99.90
16980;DHT22;42288;52.182;21.156;2023-11-19T14:02:45;2.70;99.90
16980;DHT22;42288;52.182;21.156;2023-11-19T14:05:11;2.70;99.90
16980;DHT22;42288;52.182;21.156;2023-11-19T14:07:37;2.70;99.90
16980;DHT22;42288;52.182;21.156;2023-11-19T14:10:04;2.70;99.90
16980;DHT22;42288;52.182;21.156;2023-11-19T14:12:31;2.70;99.90
16980;DHT22;42288;52.182;21.156;2023-11-19T14:14:58;2.60;99.90
16980;DHT22;42288;52.182;21.156;2023-11-19T14:17:23;2.60;99.90
16980;DHT22;42288;52.182;21.156;2023-11-19T14:19:50;2.60;99.90
16980;DHT22;42288;52.182;21.156;2023-11-19T14:22:16;2.60;99.90
16980;DHT22;42288;52.182;21.156;2023-11-19T14:24:43;2.60;99.90
16980;DHT22;42288;52.182;21.156;2023-11-19T14:27:09;2.60;99.90
16980;DHT22;42288;52.182;21.156;2023-11-19T14:29:35;2.60;99.90
16980;DHT22;42288;52.182;21.156;2023-11-19T14:32:02;2.60;99.90
16980;DHT22;42288;52.182;21.156;2023-11-19T14:34:31;2.60;99.90
16980;DHT22;42288;52.182;21.156;2023-11-19T14:36:58;2.60;99.90
16980;DHT22;42288;52.182;21.156;2023-11-19T14:39:23;2.50;99.90
16980;DHT22;42288;52.182;21.156;2023-11-19T14:41:49;2.50;99.90
16980;DHT22;42288;52.182;21.156;2023-11-19T14:44:16;2.50;99.90
16980;DHT22;42288;52.182;21.156;2023-11-19T14:46:41;2.50;99.90
16980;DHT22;42288;52.182;21.156;2023-11-19T14:49:07;2.50;99.90
16980;DHT22;42288;52.182;21.156;2023-11-19T14:51:37;2.50;99.90
16980;DHT22;42288;52.182;21.156;2023-11-19T14:54:04;2.50;99.90
16980;DHT22;42288;52.182;21.156;2023-11-19T14:56:30;2.50;99.90
16980;DHT22;42288;52.182;21.156;2023-11-19T14:58:55;2.50;99.90
16980;DHT22;42288;52.182;21.156;2023-11-19T15:01:21;2.50;99.90
16980;DHT22;42288;52.182;21.156;2023-11-19T15:03:47;2.40;99.90
16980;DHT22;42288;52.182;21.156;2023-11-19T15:06:12;2.40;99.90
16980;DHT22;42288;52.182;21.156;2023-11-19T15:08:38;2.40;99.90
16980;DHT22;42288;52.182;21.156;2023-11-19T15:11:04;2.40;99.90
16980;DHT22;42288;52.182;21.156;2023-11-19T15:13:32;2.40;99.90
16980;DHT22;42288;52.182;21.156;2023-11-19T15:15:57;2.40;99.90
16980;DHT22;42288;52.182;21.156;2023-11-19T15:18:23;2.40;99.90
16980;DHT22;42288;52.182;21.156;2023-11-19T15:20:49;2.40;99.90
16980;DHT22;42288;52.182;21.156;2023-11-19T15:23:15;2.40;99.90
16980;DHT22;42288;52.182;21.156;2023-11-19T15:25:41;2.40;99.90
16980;DHT22;42288;52.182;21.156;2023-11-19T15:28:06;2.30;99.90
16980;DHT22;42288;52.182;21.156;2023-11-19T15:30:32;2.30;99.90
16980;DHT22;42288;52.182;21.156;2023-11-19T15:32:58;2.30;99.90
16980;DHT22;42288;52.182;21.156;2023-11-19T15:35:23;2.30;99.90
16980;DHT22;42288;52.182;21.156;2023-11-19T15:37:49;2.30;99.90
16980;DHT22;42288;52.182;21.156;2023-11-19T15:40:15;2.30;99.90
16980;DHT22;42288;52.182;21.156;2023-11-19T15:42:41;2.20;99.90
16980;DHT22;42288;52.182;21.156;2023-11-19T15:45:08;2.30;99.90
16980;DHT22;42288;52.182;21.156;2023-11-19T15:47:34;2.30;99.90
16980;DHT22;42288;52.182;21.156;2023-11-19T15:50:04;2.30;99.90
16980;DHT22;42288;52.182;21.156;2023-11-19T15:52:30;2.30;99.90
16980;DHT22;42288;52.182;21.156;2023-11-19T15:54:57;2.30;99.90
16980;DHT22;42288;52.182;21.156;2023-11-19T15:57:23;2.30;99.90
16980;DHT22;42288;52.182;21.156;2023-11-19T15:59:49;2.30;99.90
16980;DHT22;42288;52.182;21.156;2023-11-19T16:02:15;2.20;99.90
16980;DHT22;42288;52.182;21.156;2023-11-19T16:04:41;2.30;99.90
16980;DHT22;42288;52.182;21.156;2023-11-19T16:07:06;2.30;99.90
16980;DHT22;42288;52.182;21.156;2023-11-19T16:09:32;2.40;99.90